createdAt,value
2022-10-21T06:03:40.140Z,5.90
2022-10-21T06:06:10.992Z,6.25
2022-10-21T06:08:41.518Z,5.90
2022-10-21T06:11:12.918Z,6.15
2022-10-21T06:13:41.643Z,6.47
2022-10-21T06:16:37.220Z,6.70
2022-10-21T06:23:17.562Z,6.30
2022-10-21T06:46:31.055Z,5.97
2022-10-21T06:49:01.960Z,6.07
2022-10-21T06:51:41.792Z,5.93
2022-10-21T06:54:31.315Z,5.88
2022-10-21T06:57:01.891Z,6.53
2022-10-21T06:59:38.978Z,6.03
2022-10-21T07:02:08.580Z,6.18
2022-10-21T07:04:37.256Z,6.72
2022-10-21T07:07:08.332Z,5.97
2022-10-21T07:09:44.533Z,5.90
2022-10-21T07:12:24.309Z,6.50
2022-10-21T07:28:01.893Z,6.60
2022-10-21T07:40:28.287Z,6.10
2022-10-21T07:51:03.940Z,5.65
2022-10-21T08:04:20.033Z,5.78
2022-10-21T08:09:49.818Z,6.13
2022-10-21T08:15:59.682Z,6.00
2022-10-21T08:18:31.208Z,6.05
2022-10-21T08:21:11.777Z,6.03
2022-10-21T08:23:47.382Z,6.03
2022-10-21T08:26:48.922Z,5.78
2022-10-21T08:29:19.485Z,6.18
2022-10-21T08:31:49.401Z,6.07
2022-10-21T08:37:17.033Z,5.93
2022-10-21T08:40:30.212Z,6.00
2022-10-21T08:45:54.096Z,7.00
2022-10-21T08:48:43.812Z,6.93
2022-10-21T08:51:24.437Z,6.70
2022-10-21T08:53:55.613Z,6.45
2022-10-21T08:56:25.944Z,6.40
2022-10-21T08:58:53.558Z,6.43
2022-10-21T09:01:42.105Z,6.13
2022-10-21T09:04:31.242Z,6.70
2022-10-21T09:07:11.579Z,6.30
2022-10-21T09:09:59.710Z,6.78
2022-10-21T09:12:43.502Z,5.68
2022-10-21T09:15:25.532Z,6.72
2022-10-21T09:18:42.873Z,5.72
2022-10-21T09:25:03.817Z,6.03
2022-10-21T09:27:51.319Z,5.32
2022-10-21T09:30:23.167Z,5.85
2022-10-21T09:32:59.679Z,5.90
2022-10-21T09:35:35.917Z,6.00
2022-10-21T09:38:26.374Z,6.03
2022-10-21T09:41:03.136Z,5.97
2022-10-21T09:43:31.901Z,5.70
2022-10-21T09:46:01.421Z,5.47
2022-10-21T09:51:19.371Z,5.55
2022-10-21T09:54:20.654Z,5.78
2022-10-21T09:57:15.658Z,5.50
2022-10-21T10:02:32.755Z,5.55
2022-10-21T10:05:00.480Z,5.80
2022-10-21T10:07:36.338Z,6.40
2022-10-21T10:10:38.177Z,6.25
2022-10-21T10:13:05.767Z,5.80
2022-10-21T10:15:38.801Z,5.45
2022-10-21T10:18:22.939Z,5.20
2022-10-21T10:21:15.136Z,5.65
2022-10-21T10:23:55.369Z,4.95
2022-10-21T10:26:37.270Z,5.80
2022-10-21T10:29:26.354Z,5.47
2022-10-21T10:32:04.601Z,5.38
2022-10-21T10:34:40.561Z,6.05
2022-10-21T10:37:26.877Z,5.95
2022-10-21T10:39:58.456Z,6.03
2022-10-21T10:42:37.435Z,4.93
2022-10-21T10:45:20.751Z,5.75
2022-10-21T10:48:16.760Z,5.65
2022-10-21T10:50:51.722Z,5.43
2022-10-21T10:56:27.663Z,6.00
2022-10-21T10:59:28.307Z,5.60
2022-10-21T11:02:44.352Z,5.43
2022-10-21T11:05:29.134Z,5.00
2022-10-21T11:08:02.173Z,5.30
2022-10-21T11:10:32.721Z,4.85
2022-10-21T11:13:03.220Z,4.65
2022-10-21T11:16:25.796Z,4.85
2022-10-21T11:19:34.955Z,4.80
2022-10-21T11:22:34.393Z,4.65
2022-10-21T11:25:23.209Z,4.72
2022-10-21T11:28:37.390Z,4.97
2022-10-21T11:31:21.664Z,4.95
2022-10-21T11:34:18.807Z,4.95
2022-10-21T11:37:26.257Z,4.40
2022-10-21T11:40:33.699Z,4.55
2022-10-21T11:43:29.718Z,4.90
2022-10-21T11:46:18.212Z,4.82
2022-10-21T11:49:03.716Z,4.80
2022-10-21T11:52:07.119Z,5.00
2022-10-21T11:55:10.421Z,4.65
2022-10-21T11:57:45.209Z,4.22
2022-10-21T12:03:20.673Z,4.93
2022-10-21T12:06:01.584Z,4.45
2022-10-21T12:08:43.238Z,4.50
2022-10-21T12:11:27.075Z,5.20
2022-10-21T12:14:44.435Z,4.65
2022-10-21T12:17:19.425Z,5.10
2022-10-21T12:19:59.799Z,5.00
2022-10-21T12:22:30.969Z,4.72
2022-10-21T12:25:13.576Z,4.40
2022-10-21T12:28:17.521Z,4.80
2022-10-21T12:31:02.608Z,9.75
2022-10-21T12:33:36.102Z,5.07
2022-10-21T12:36:19.193Z,5.10
2022-10-21T12:38:59.976Z,5.25
2022-10-21T12:41:36.432Z,4.78
2022-10-21T12:44:03.844Z,4.82
2022-10-21T12:46:43.652Z,5.22
2022-10-21T12:49:35.951Z,5.45
2022-10-21T12:52:10.705Z,6.10
2022-10-21T12:55:08.721Z,5.35
2022-10-21T12:57:40.262Z,8.43
2022-10-21T13:03:11.298Z,13.03
2022-10-21T13:05:38.547Z,8.88
2022-10-21T13:08:23.382Z,6.10
2022-10-21T13:11:06.074Z,5.40
2022-10-21T13:13:40.542Z,6.00
2022-10-21T13:16:19.779Z,4.80
2022-10-21T13:19:32.638Z,5.03
2022-10-21T13:22:17.815Z,4.72
2022-10-21T13:24:46.542Z,5.50
2022-10-21T13:30:03.292Z,5.35
2022-10-21T13:32:37.353Z,5.22
2022-10-21T13:35:20.103Z,5.15
2022-10-21T13:38:03.619Z,5.60
2022-10-21T13:40:49.468Z,5.28
2022-10-21T13:43:29.074Z,4.70
2022-10-21T13:46:10.509Z,4.68
2022-10-21T13:48:41.246Z,5.72
2022-10-21T13:51:28.448Z,4.78
2022-10-21T13:54:12.998Z,5.50
2022-10-21T13:59:33.928Z,4.82
2022-10-21T14:02:02.242Z,4.72
2022-10-21T14:04:32.875Z,5.00
2022-10-21T14:07:19.305Z,5.13
2022-10-21T14:09:54.918Z,5.85
2022-10-21T14:12:45.300Z,6.75
2022-10-21T14:15:19.299Z,5.18
2022-10-21T14:17:56.515Z,7.30
2022-10-21T14:20:33.749Z,5.40
2022-10-21T14:23:05.037Z,5.68
2022-10-21T14:25:33.381Z,20.30
2022-10-21T14:28:02.205Z,7.40
2022-10-21T14:30:37.036Z,4.70
2022-10-21T14:33:11.265Z,4.78
2022-10-21T14:38:28.429Z,4.82
2022-10-21T14:41:06.799Z,5.57
2022-10-21T14:43:43.965Z,5.03
2022-10-21T14:46:12.224Z,5.13
2022-10-21T14:48:51.303Z,5.78
2022-10-21T14:51:22.684Z,5.40
2022-10-21T14:54:02.347Z,4.80
2022-10-21T14:56:41.423Z,5.10
2022-10-21T14:59:42.334Z,5.03
2022-10-21T15:02:23.527Z,5.25
2022-10-21T15:04:53.797Z,6.18
2022-10-21T15:07:35.152Z,7.50
2022-10-21T15:10:05.509Z,5.55
2022-10-21T15:12:52.887Z,5.10
2022-10-21T15:15:49.729Z,5.82
2022-10-21T15:18:47.760Z,4.90
2022-10-21T15:21:46.453Z,5.50
2022-10-21T15:24:35.345Z,6.70
2022-10-21T15:27:04.069Z,5.18
2022-10-21T15:29:39.315Z,5.55
2022-10-21T15:32:07.119Z,5.10
2022-10-21T15:34:34.634Z,5.60
2022-10-21T15:37:02.171Z,5.55
2022-10-21T15:39:30.172Z,6.28
2022-10-21T15:41:59.124Z,5.60
2022-10-21T15:44:32.294Z,5.00
2022-10-21T15:47:08.540Z,5.35
2022-10-21T15:49:41.472Z,5.10
2022-10-21T15:52:11.886Z,5.53
2022-10-21T15:54:39.508Z,5.47
2022-10-21T15:57:21.878Z,5.20
2022-10-21T15:59:49.698Z,4.90
2022-10-21T16:05:02.850Z,6.43
2022-10-21T16:07:35.543Z,6.60
2022-10-21T16:10:10.032Z,5.22
2022-10-21T16:12:37.850Z,5.63
2022-10-21T16:15:05.801Z,5.25
2022-10-21T16:17:35.854Z,6.85
2022-10-21T16:20:03.994Z,6.88
2022-10-21T16:22:31.440Z,7.57
2022-10-21T16:24:58.903Z,6.10
2022-10-21T16:27:43.341Z,6.55
2022-10-21T16:30:27.739Z,5.88
2022-10-21T16:33:01.679Z,6.07
2022-10-21T16:35:29.127Z,5.78
2022-10-21T16:37:56.646Z,6.53
2022-10-21T16:40:32.029Z,6.72
2022-10-21T16:42:59.930Z,6.75
2022-10-21T16:45:32.690Z,5.95
2022-10-21T16:48:04.146Z,6.10
2022-10-21T16:50:45.714Z,6.40
2022-10-21T16:53:16.372Z,5.72
2022-10-21T16:55:43.984Z,6.95
2022-10-21T16:58:11.582Z,8.35
2022-10-21T17:00:41.971Z,7.47
2022-10-21T17:03:12.564Z,9.75
2022-10-21T17:05:40.051Z,11.38
2022-10-21T17:08:07.553Z,7.10
2022-10-21T17:10:35.048Z,8.30
2022-10-21T17:13:02.513Z,9.00
2022-10-21T17:15:30.089Z,6.50
2022-10-21T17:17:57.553Z,6.40
2022-10-21T17:20:30.500Z,6.63
2022-10-21T17:23:00.029Z,8.13
2022-10-21T17:25:29.977Z,8.43
2022-10-21T17:27:57.932Z,7.80
2022-10-21T17:30:26.803Z,8.57
2022-10-21T17:32:54.627Z,7.85
2022-10-21T17:35:22.351Z,7.18
2022-10-21T17:37:51.614Z,6.60
2022-10-21T17:40:26.148Z,6.90
2022-10-21T17:42:58.522Z,6.88
2022-10-21T17:45:26.163Z,6.70
2022-10-21T17:47:54.018Z,6.18
2022-10-21T17:50:24.490Z,6.65
2022-10-21T17:52:55.745Z,8.15
2022-10-21T17:55:23.297Z,6.90
2022-10-21T17:57:50.814Z,6.60
2022-10-21T18:00:18.588Z,6.68
2022-10-21T18:02:46.022Z,6.75
2022-10-21T18:05:13.617Z,6.70
2022-10-21T18:07:42.764Z,6.65
2022-10-21T18:10:12.645Z,6.53
2022-10-21T18:12:40.269Z,6.65
2022-10-21T18:15:08.233Z,6.50
2022-10-21T18:17:37.547Z,7.03
2022-10-21T18:20:05.891Z,6.60
2022-10-21T18:22:33.363Z,9.13
2022-10-21T18:25:00.832Z,8.02
2022-10-21T18:27:33.646Z,7.55
2022-10-21T18:30:01.091Z,7.10
2022-10-21T18:32:30.009Z,7.22
2022-10-21T18:34:57.412Z,9.13
2022-10-21T18:37:27.823Z,7.22
2022-10-21T18:39:58.144Z,7.95
2022-10-21T18:42:26.500Z,7.03
2022-10-21T18:44:54.044Z,7.30
2022-10-21T18:47:21.439Z,7.03
2022-10-21T18:49:50.980Z,8.00
2022-10-21T18:52:18.443Z,7.70
2022-10-21T18:54:45.920Z,6.93
2022-10-21T18:57:13.439Z,19.30
2022-10-21T18:59:41.598Z,15.73
2022-10-21T19:02:11.706Z,10.80
2022-10-21T19:04:41.561Z,9.73
2022-10-21T19:07:08.913Z,9.30
2022-10-21T19:09:36.284Z,9.25
2022-10-21T19:12:03.893Z,10.43
2022-10-21T19:14:33.863Z,11.18
2022-10-21T19:17:01.696Z,8.30
2022-10-21T19:19:29.260Z,9.13
2022-10-21T19:21:59.738Z,20.05
2022-10-21T19:24:27.174Z,10.45
2022-10-21T19:26:58.411Z,10.48
2022-10-21T19:29:26.799Z,27.05
2022-10-21T19:31:56.627Z,20.88
2022-10-21T19:34:30.274Z,10.60
2022-10-21T19:36:57.839Z,9.15
2022-10-21T19:39:25.483Z,8.13
2022-10-21T19:41:53.940Z,13.27
2022-10-21T19:44:21.499Z,12.70
2022-10-21T19:46:48.978Z,11.85
2022-10-21T19:49:16.402Z,11.15
2022-10-21T19:51:43.974Z,11.50
2022-10-21T19:54:13.755Z,10.57
2022-10-21T19:56:44.282Z,10.32
2022-10-21T19:59:12.076Z,9.85
2022-10-21T20:01:39.751Z,16.35
2022-10-21T20:04:07.391Z,15.82
2022-10-21T20:06:37.486Z,15.02
2022-10-21T20:09:14.241Z,14.38
2022-10-21T20:11:45.267Z,12.63
2022-10-21T20:14:14.136Z,12.10
2022-10-21T20:16:43.253Z,11.90
2022-10-21T20:19:12.720Z,13.13
2022-10-21T20:21:41.553Z,10.50
2022-10-21T20:24:09.880Z,11.68
2022-10-21T20:26:37.297Z,11.05
2022-10-21T20:29:04.746Z,10.65
2022-10-21T20:31:32.247Z,10.68
2022-10-21T20:33:59.709Z,11.32
2022-10-21T20:36:33.374Z,12.00
2022-10-21T20:39:03.132Z,12.20
2022-10-21T20:41:34.806Z,11.75
2022-10-21T20:44:04.573Z,11.50
2022-10-21T20:46:38.062Z,12.40
2022-10-21T20:49:07.870Z,11.60
2022-10-21T20:51:38.511Z,11.93
2022-10-21T20:54:15.083Z,12.52
2022-10-21T20:56:42.955Z,12.23
2022-10-21T20:59:15.464Z,13.48
2022-10-21T21:01:46.608Z,13.35
2022-10-21T21:04:17.455Z,13.75
2022-10-21T21:06:48.744Z,13.13
2022-10-21T21:12:08.362Z,11.45
2022-10-21T21:14:35.890Z,11.70
2022-10-21T21:17:06.990Z,10.15
2022-10-21T21:19:36.333Z,9.90
2022-10-21T21:22:05.062Z,9.88
2022-10-21T21:24:33.182Z,9.90
2022-10-21T21:27:00.618Z,10.00
2022-10-21T21:29:28.130Z,8.77
2022-10-21T21:31:55.554Z,8.45
2022-10-21T21:34:23.027Z,8.77
2022-10-21T21:36:50.541Z,8.55
2022-10-21T21:39:20.528Z,8.77
2022-10-21T21:41:47.955Z,8.27
2022-10-21T21:44:17.659Z,8.80
2022-10-21T21:46:47.343Z,8.73
2022-10-21T21:49:14.808Z,8.73
2022-10-21T21:51:42.193Z,9.10
2022-10-21T21:54:09.642Z,9.27
2022-10-21T21:56:37.051Z,9.10
2022-10-21T21:59:05.071Z,9.55
2022-10-21T22:01:32.607Z,9.70
2022-10-21T22:04:01.482Z,9.57
2022-10-21T22:06:33.640Z,10.30
2022-10-21T22:09:02.460Z,10.25
2022-10-21T22:11:33.045Z,11.15
2022-10-21T22:14:00.532Z,10.65
2022-10-21T22:16:30.514Z,10.82
2022-10-21T22:19:00.710Z,10.82
2022-10-21T22:21:30.320Z,11.13
2022-10-21T22:23:57.863Z,11.90
2022-10-21T22:26:26.976Z,12.70
2022-10-21T22:28:54.890Z,10.40
2022-10-21T22:31:29.053Z,10.63
2022-10-21T22:33:59.553Z,10.55
2022-10-21T22:36:27.579Z,10.13
2022-10-21T22:38:57.785Z,10.27
2022-10-21T22:41:25.626Z,10.15
2022-10-21T22:43:53.117Z,10.70
2022-10-21T22:46:33.011Z,10.43
2022-10-21T22:49:02.906Z,10.43
2022-10-21T22:51:33.241Z,10.45
2022-10-21T22:54:01.306Z,10.95
2022-10-21T22:56:29.084Z,10.80
2022-10-21T22:58:57.627Z,11.07
2022-10-21T23:01:31.122Z,10.40
2022-10-21T23:04:04.193Z,11.15
2022-10-21T23:06:34.176Z,12.05
2022-10-21T23:09:04.045Z,10.60
2022-10-21T23:11:32.659Z,11.40
2022-10-21T23:14:08.312Z,11.18
2022-10-21T23:16:37.540Z,11.48
2022-10-21T23:19:06.691Z,10.70
2022-10-21T23:21:35.030Z,10.77
2022-10-21T23:24:02.816Z,10.98
2022-10-21T23:26:30.322Z,11.32
2022-10-21T23:28:57.801Z,11.45
2022-10-21T23:31:25.265Z,11.68
2022-10-21T23:33:52.704Z,11.30
2022-10-21T23:36:20.160Z,11.40
2022-10-21T23:38:48.782Z,11.63
2022-10-21T23:41:16.271Z,11.30
2022-10-21T23:43:43.747Z,11.27
2022-10-21T23:46:11.182Z,11.90
2022-10-21T23:48:41.293Z,11.30
2022-10-21T23:51:08.834Z,11.63
2022-10-21T23:53:36.180Z,12.23
2022-10-21T23:56:04.419Z,13.02
2022-10-21T23:58:33.925Z,13.13
